sensor_id;sensor_type;location;lat;lon;timestamp;pressure;altitude;pressure_sealevel;temperature;humidity
46710;BME280;32442;51.514;-0.178;2022-11-23T00:00:03;99093.19;;;21.28;44.69
46710;BME280;32442;51.514;-0.178;2022-11-23T00:02:29;99100.34;;;21.26;44.43
46710;BME280;32442;51.514;-0.178;2022-11-23T00:04:56;99094.72;;;21.26;44.63
46710;BME280;32442;51.514;-0.178;2022-11-23T00:07:23;99097.09;;;21.24;44.32
46710;BME280;32442;51.514;-0.178;2022-11-23T00:09:50;99101.06;;;21.23;44.58
46710;BME280;32442;51.514;-0.178;2022-11-23T00:12:16;99089.00;;;21.22;44.44
46710;BME280;32442;51.514;-0.178;2022-11-23T00:14:43;99098.59;;;21.21;44.65
46710;BME280;32442;51.514;-0.178;2022-11-23T00:17:14;99085.28;;;21.18;44.74
46710;BME280;32442;51.514;-0.178;2022-11-23T00:19:41;99087.28;;;21.18;44.59
46710;BME280;32442;51.514;-0.178;2022-11-23T00:22:07;99080.03;;;21.17;44.78
46710;BME280;32442;51.514;-0.178;2022-11-23T00:24:34;99079.56;;;21.15;44.47
46710;BME280;32442;51.514;-0.178;2022-11-23T00:27:01;99080.28;;;21.12;44.88
46710;BME280;32442;51.514;-0.178;2022-11-23T00:29:27;99078.97;;;21.09;44.92
46710;BME280;32442;51.514;-0.178;2022-11-23T00:31:54;99072.09;;;21.07;44.95
46710;BME280;32442;51.514;-0.178;2022-11-23T00:34:21;99069.28;;;21.07;45.10
46710;BME280;32442;51.514;-0.178;2022-11-23T00:36:49;99066.72;;;21.02;44.73
46710;BME280;32442;51.514;-0.178;2022-11-23T00:39:16;99070.25;;;20.99;45.24
46710;BME280;32442;51.514;-0.178;2022-11-23T00:41:43;99059.63;;;20.92;45.15
46710;BME280;32442;51.514;-0.178;2022-11-23T00:44:09;99067.16;;;20.88;45.50
46710;BME280;32442;51.514;-0.178;2022-11-23T00:46:36;99060.97;;;20.82;45.65
46710;BME280;32442;51.514;-0.178;2022-11-23T00:49:02;99070.09;;;20.79;45.40
46710;BME280;32442;51.514;-0.178;2022-11-23T00:51:30;99062.03;;;20.78;45.71
46710;BME280;32442;51.514;-0.178;2022-11-23T00:53:58;99057.47;;;20.73;45.95
46710;BME280;32442;51.514;-0.178;2022-11-23T00:56:25;99060.63;;;20.72;45.45
46710;BME280;32442;51.514;-0.178;2022-11-23T00:58:53;99053.28;;;20.67;45.69
46710;BME280;32442;51.514;-0.178;2022-11-23T01:01:21;99054.00;;;20.64;46.04
46710;BME280;32442;51.514;-0.178;2022-11-23T01:03:51;99056.38;;;20.62;46.00
46710;BME280;32442;51.514;-0.178;2022-11-23T01:06:20;99052.72;;;20.62;45.90
46710;BME280;32442;51.514;-0.178;2022-11-23T01:08:50;99051.44;;;20.59;45.98
46710;BME280;32442;51.514;-0.178;2022-11-23T01:11:17;99044.56;;;20.57;45.68
46710;BME280;32442;51.514;-0.178;2022-11-23T01:13:45;99051.25;;;20.52;45.74
46710;BME280;32442;51.514;-0.178;2022-11-23T01:16:12;99048.78;;;20.51;46.13
46710;BME280;32442;51.514;-0.178;2022-11-23T01:18:50;99048.78;;;20.51;45.77
46710;BME280;32442;51.514;-0.178;2022-11-23T01:21:17;99049.13;;;20.49;46.10
46710;BME280;32442;51.514;-0.178;2022-11-23T01:23:43;99047.03;;;20.46;46.19
46710;BME280;32442;51.514;-0.178;2022-11-23T01:26:10;99053.38;;;20.43;46.25
46710;BME280;32442;51.514;-0.178;2022-11-23T01:28:37;99045.63;;;20.40;45.97
46710;BME280;32442;51.514;-0.178;2022-11-23T01:31:05;99045.63;;;20.40;45.97
46710;BME280;32442;51.514;-0.178;2022-11-23T01:33:32;99039.91;;;20.36;45.97
46710;BME280;32442;51.514;-0.178;2022-11-23T01:35:59;99032.66;;;20.35;45.95
46710;BME280;32442;51.514;-0.178;2022-11-23T01:38:26;99029.75;;;20.32;46.30
46710;BME280;32442;51.514;-0.178;2022-11-23T01:40:53;99022.03;;;20.29;46.25
46710;BME280;32442;51.514;-0.178;2022-11-23T01:43:19;99026.50;;;20.30;46.40
46710;BME280;32442;51.514;-0.178;2022-11-23T01:48:20;99019.47;;;20.24;46.45
46710;BME280;32442;51.514;-0.178;2022-11-23T01:50:49;99020.19;;;20.21;46.55
46710;BME280;32442;51.514;-0.178;2022-11-23T01:53:17;99008.97;;;20.21;46.29
46710;BME280;32442;51.514;-0.178;2022-11-23T01:55:45;99005.25;;;20.17;46.56
46710;BME280;32442;51.514;-0.178;2022-11-23T01:58:14;99003.59;;;20.16;46.56
46710;BME280;32442;51.514;-0.178;2022-11-23T02:00:41;99004.41;;;20.16;46.33
46710;BME280;32442;51.514;-0.178;2022-11-23T02:03:08;98998.34;;;20.14;46.55
46710;BME280;32442;51.514;-0.178;2022-11-23T02:05:39;99006.41;;;20.16;46.80
46710;BME280;32442;51.514;-0.178;2022-11-23T02:08:07;98998.34;;;20.14;46.48
46710;BME280;32442;51.514;-0.178;2022-11-23T02:10:34;98994.72;;;20.14;46.45
46710;BME280;32442;51.514;-0.178;2022-11-23T02:13:05;98987.03;;;20.11;46.57
46710;BME280;32442;51.514;-0.178;2022-11-23T02:15:32;98979.31;;;20.08;46.85
46710;BME280;32442;51.514;-0.178;2022-11-23T02:18:00;98960.50;;;20.08;46.54
46710;BME280;32442;51.514;-0.178;2022-11-23T02:20:28;98967.63;;;20.06;46.94
46710;BME280;32442;51.514;-0.178;2022-11-23T02:25:32;98956.31;;;20.02;46.94
46710;BME280;32442;51.514;-0.178;2022-11-23T02:28:02;98954.69;;;20.01;47.11
46710;BME280;32442;51.514;-0.178;2022-11-23T02:30:29;98959.47;;;20.01;46.84
46710;BME280;32442;51.514;-0.178;2022-11-23T02:32:56;98949.78;;;19.98;47.21
46710;BME280;32442;51.514;-0.178;2022-11-23T02:35:22;98942.53;;;19.97;47.14
46710;BME280;32442;51.514;-0.178;2022-11-23T02:37:49;98937.28;;;19.95;47.18
46710;BME280;32442;51.514;-0.178;2022-11-23T02:40:31;98927.22;;;19.94;46.93
46710;BME280;32442;51.514;-0.178;2022-11-23T02:42:58;98922.34;;;19.91;47.10
46710;BME280;32442;51.514;-0.178;2022-11-23T02:48:10;98915.81;;;19.87;47.32
46710;BME280;32442;51.514;-0.178;2022-11-23T02:50:37;98916.63;;;19.88;47.44
46710;BME280;32442;51.514;-0.178;2022-11-23T02:53:04;98919.34;;;19.84;47.27
46710;BME280;32442;51.514;-0.178;2022-11-23T02:55:30;98920.94;;;19.85;47.76
46710;BME280;32442;51.514;-0.178;2022-11-23T02:57:57;98918.53;;;19.84;47.79
46710;BME280;32442;51.514;-0.178;2022-11-23T03:00:24;98923.66;;;19.82;47.42
46710;BME280;32442;51.514;-0.178;2022-11-23T03:02:51;98922.38;;;19.79;47.63
46710;BME280;32442;51.514;-0.178;2022-11-23T03:05:17;98918.28;;;19.77;47.58
46710;BME280;32442;51.514;-0.178;2022-11-23T03:07:44;98915.84;;;19.75;47.61
46710;BME280;32442;51.514;-0.178;2022-11-23T03:10:11;98903.00;;;19.74;48.02
46710;BME280;32442;51.514;-0.178;2022-11-23T03:12:37;98901.38;;;19.73;47.69
46710;BME280;32442;51.514;-0.178;2022-11-23T03:15:04;98897.63;;;19.69;48.18
46710;BME280;32442;51.514;-0.178;2022-11-23T03:17:31;98889.56;;;19.68;48.17
46710;BME280;32442;51.514;-0.178;2022-11-23T03:19:58;98888.31;;;19.65;48.31
46710;BME280;32442;51.514;-0.178;2022-11-23T03:22:24;98885.41;;;19.62;48.33
46710;BME280;32442;51.514;-0.178;2022-11-23T03:24:51;98881.78;;;19.61;48.56
46710;BME280;32442;51.514;-0.178;2022-11-23T03:27:18;98873.72;;;19.60;48.40
46710;BME280;32442;51.514;-0.178;2022-11-23T03:29:45;98872.91;;;19.59;48.70
46710;BME280;32442;51.514;-0.178;2022-11-23T03:32:11;98873.28;;;19.58;48.57
46710;BME280;32442;51.514;-0.178;2022-11-23T03:34:38;98869.53;;;19.53;48.64
46710;BME280;32442;51.514;-0.178;2022-11-23T03:37:04;98863.47;;;19.51;48.95
46710;BME280;32442;51.514;-0.178;2022-11-23T03:39:31;98866.63;;;19.50;49.09
46710;BME280;32442;51.514;-0.178;2022-11-23T03:41:58;98861.72;;;19.47;48.97
46710;BME280;32442;51.514;-0.178;2022-11-23T03:44:25;98855.31;;;19.46;49.08
46710;BME280;32442;51.514;-0.178;2022-11-23T03:46:52;98853.22;;;19.43;49.37
46710;BME280;32442;51.514;-0.178;2022-11-23T03:49:18;98852.84;;;19.45;49.39
46710;BME280;32442;51.514;-0.178;2022-11-23T03:51:45;98859.63;;;19.44;49.22
46710;BME280;32442;51.514;-0.178;2022-11-23T03:54:11;98844.81;;;19.43;49.36
46710;BME280;32442;51.514;-0.178;2022-11-23T03:56:38;98843.03;;;19.39;49.75
46710;BME280;32442;51.514;-0.178;2022-11-23T03:59:05;98829.84;;;19.39;49.52
46710;BME280;32442;51.514;-0.178;2022-11-23T04:01:32;98830.19;;;19.38;49.46
46710;BME280;32442;51.514;-0.178;2022-11-23T04:03:58;98833.72;;;19.35;49.76
46710;BME280;32442;51.514;-0.178;2022-11-23T04:06:25;98836.50;;;19.35;49.67
46710;BME280;32442;51.514;-0.178;2022-11-23T04:08:51;98824.03;;;19.32;49.67
46710;BME280;32442;51.514;-0.178;2022-11-23T04:11:25;98826.81;;;19.32;49.85
46710;BME280;32442;51.514;-0.178;2022-11-23T04:13:52;98833.25;;;19.33;49.77
46710;BME280;32442;51.514;-0.178;2022-11-23T04:16:18;98831.59;;;19.32;49.73
46710;BME280;32442;51.514;-0.178;2022-11-23T04:18:45;98828.34;;;19.30;50.00
46710;BME280;32442;51.514;-0.178;2022-11-23T04:21:12;98823.09;;;19.28;49.91
46710;BME280;32442;51.514;-0.178;2022-11-23T04:23:38;98816.34;;;19.29;50.04
46710;BME280;32442;51.514;-0.178;2022-11-23T04:26:10;98817.72;;;19.23;50.17
46710;BME280;32442;51.514;-0.178;2022-11-23T04:28:36;98821.34;;;19.24;50.60
46710;BME280;32442;51.514;-0.178;2022-11-23T04:31:03;98816.91;;;19.23;50.64
46710;BME280;32442;51.514;-0.178;2022-11-23T04:33:30;98812.84;;;19.20;50.65
46710;BME280;32442;51.514;-0.178;2022-11-23T04:35:57;98811.22;;;19.19;50.26
46710;BME280;32442;51.514;-0.178;2022-11-23T04:38:23;98807.25;;;19.20;50.60
46710;BME280;32442;51.514;-0.178;2022-11-23T04:40:50;98805.94;;;19.18;50.77
46710;BME280;32442;51.514;-0.178;2022-11-23T04:43:17;98800.00;;;19.19;50.71
46710;BME280;32442;51.514;-0.178;2022-11-23T04:45:43;98800.81;;;19.20;50.52
46710;BME280;32442;51.514;-0.178;2022-11-23T04:48:10;98796.38;;;19.19;50.32
46710;BME280;32442;51.514;-0.178;2022-11-23T04:50:37;98788.00;;;19.19;50.61
46710;BME280;32442;51.514;-0.178;2022-11-23T04:53:05;98781.13;;;19.16;50.69
46710;BME280;32442;51.514;-0.178;2022-11-23T04:55:32;98775.88;;;19.15;50.34
46710;BME280;32442;51.514;-0.178;2022-11-23T04:57:59;98779.84;;;19.14;50.55
46710;BME280;32442;51.514;-0.178;2022-11-23T05:00:26;98772.16;;;19.10;50.28
46710;BME280;32442;51.514;-0.178;2022-11-23T05:02:53;98761.28;;;19.09;50.65
46710;BME280;32442;51.514;-0.178;2022-11-23T05:05:20;98758.06;;;19.07;50.63
46710;BME280;32442;51.514;-0.178;2022-11-23T05:07:46;98756.41;;;19.06;50.75
46710;BME280;32442;51.514;-0.178;2022-11-23T05:10:13;98759.09;;;19.02;50.55
46710;BME280;32442;51.514;-0.178;2022-11-23T05:12:39;98764.69;;;19.02;50.76
46710;BME280;32442;51.514;-0.178;2022-11-23T05:15:06;98763.88;;;19.02;50.56
46710;BME280;32442;51.514;-0.178;2022-11-23T05:17:33;98770.28;;;19.02;50.85
46710;BME280;32442;51.514;-0.178;2022-11-23T05:20:00;98768.66;;;19.01;50.58
46710;BME280;32442;51.514;-0.178;2022-11-23T05:22:26;98766.19;;;19.00;50.67
46710;BME280;32442;51.514;-0.178;2022-11-23T05:24:53;98758.97;;;18.99;50.43
46710;BME280;32442;51.514;-0.178;2022-11-23T05:27:20;98748.16;;;18.97;50.50
46710;BME280;32442;51.514;-0.178;2022-11-23T05:29:46;98749.31;;;18.96;50.55
46710;BME280;32442;51.514;-0.178;2022-11-23T05:32:13;98739.38;;;18.99;50.87
46710;BME280;32442;51.514;-0.178;2022-11-23T05:34:40;98732.13;;;19.10;51.30
46710;BME280;32442;51.514;-0.178;2022-11-23T05:37:06;98736.34;;;19.16;51.32
46710;BME280;32442;51.514;-0.178;2022-11-23T05:39:33;98737.59;;;19.19;51.27
46710;BME280;32442;51.514;-0.178;2022-11-23T05:42:00;98732.94;;;19.23;51.86
46710;BME280;32442;51.514;-0.178;2022-11-23T05:44:27;98734.66;;;19.27;51.46
46710;BME280;32442;51.514;-0.178;2022-11-23T05:46:53;98728.00;;;19.32;51.31
46710;BME280;32442;51.514;-0.178;2022-11-23T05:49:20;98732.91;;;19.35;51.87
46710;BME280;32442;51.514;-0.178;2022-11-23T05:51:46;98723.78;;;19.38;51.76
46710;BME280;32442;51.514;-0.178;2022-11-23T05:54:13;98724.72;;;19.42;51.83
46710;BME280;32442;51.514;-0.178;2022-11-23T05:56:40;98715.63;;;19.45;51.52
46710;BME280;32442;51.514;-0.178;2022-11-23T05:59:06;98710.16;;;19.48;51.49
46710;BME280;32442;51.514;-0.178;2022-11-23T06:01:33;98697.06;;;19.52;51.66
46710;BME280;32442;51.514;-0.178;2022-11-23T06:04:00;98689.56;;;19.57;51.83
46710;BME280;32442;51.514;-0.178;2022-11-23T06:06:27;98686.50;;;19.62;51.72
46710;BME280;32442;51.514;-0.178;2022-11-23T06:08:54;98685.44;;;19.66;51.45
46710;BME280;32442;51.514;-0.178;2022-11-23T06:11:21;98676.78;;;19.71;51.32
46710;BME280;32442;51.514;-0.178;2022-11-23T06:13:47;98674.50;;;19.77;51.29
46710;BME280;32442;51.514;-0.178;2022-11-23T06:16:16;98683.47;;;19.82;51.87
46710;BME280;32442;51.514;-0.178;2022-11-23T06:18:43;98677.59;;;19.87;51.22
46710;BME280;32442;51.514;-0.178;2022-11-23T06:21:10;98663.34;;;19.92;51.19
46710;BME280;32442;51.514;-0.178;2022-11-23T06:23:36;98656.66;;;19.97;51.14
46710;BME280;32442;51.514;-0.178;2022-11-23T06:26:10;98646.81;;;20.03;51.33
46710;BME280;32442;51.514;-0.178;2022-11-23T06:28:38;98633.69;;;20.07;51.19
46710;BME280;32442;51.514;-0.178;2022-11-23T06:31:05;98633.03;;;20.14;50.96
46710;BME280;32442;51.514;-0.178;2022-11-23T06:33:32;98619.94;;;20.18;51.16
46710;BME280;32442;51.514;-0.178;2022-11-23T06:35:59;98619.66;;;20.23;50.75
46710;BME280;32442;51.514;-0.178;2022-11-23T06:38:27;98607.00;;;20.29;50.54
46710;BME280;32442;51.514;-0.178;2022-11-23T06:41:00;98601.16;;;20.34;50.79
46710;BME280;32442;51.514;-0.178;2022-11-23T06:43:27;98597.25;;;20.38;50.59
46710;BME280;32442;51.514;-0.178;2022-11-23T06:45:54;98589.72;;;20.42;50.55
46710;BME280;32442;51.514;-0.178;2022-11-23T06:48:21;98584.66;;;20.48;50.23
46710;BME280;32442;51.514;-0.178;2022-11-23T06:50:47;98583.56;;;20.53;50.38
46710;BME280;32442;51.514;-0.178;2022-11-23T06:53:14;98574.03;;;20.57;50.37
46710;BME280;32442;51.514;-0.178;2022-11-23T06:55:41;98563.31;;;20.63;49.85
46710;BME280;32442;51.514;-0.178;2022-11-23T06:58:08;98557.41;;;20.68;50.12
46710;BME280;32442;51.514;-0.178;2022-11-23T07:00:35;98552.69;;;20.72;49.66
46710;BME280;32442;51.514;-0.178;2022-11-23T07:03:02;98535.97;;;20.75;49.50
46710;BME280;32442;51.514;-0.178;2022-11-23T07:05:30;98543.28;;;20.80;49.53
46710;BME280;32442;51.514;-0.178;2022-11-23T07:07:57;98527.75;;;20.86;49.71
46710;BME280;32442;51.514;-0.178;2022-11-23T07:10:24;98532.63;;;20.89;49.60
46710;BME280;32442;51.514;-0.178;2022-11-23T07:12:51;98535.13;;;20.94;49.39
46710;BME280;32442;51.514;-0.178;2022-11-23T07:15:18;98539.63;;;20.99;49.46
46710;BME280;32442;51.514;-0.178;2022-11-23T07:17:44;98534.53;;;21.04;49.18
46710;BME280;32442;51.514;-0.178;2022-11-23T07:20:11;98531.78;;;21.08;48.71
46710;BME280;32442;51.514;-0.178;2022-11-23T07:22:38;98538.78;;;21.14;49.22
46710;BME280;32442;51.514;-0.178;2022-11-23T07:25:05;98536.84;;;21.18;48.78
46710;BME280;32442;51.514;-0.178;2022-11-23T07:27:32;98528.88;;;21.20;48.57
46710;BME280;32442;51.514;-0.178;2022-11-23T07:29:59;98522.50;;;21.23;48.25
46710;BME280;32442;51.514;-0.178;2022-11-23T07:32:25;98511.31;;;21.26;48.13
46710;BME280;32442;51.514;-0.178;2022-11-23T07:34:52;98514.59;;;21.28;48.19
46710;BME280;32442;51.514;-0.178;2022-11-23T07:37:19;98515.81;;;21.31;47.93
46710;BME280;32442;51.514;-0.178;2022-11-23T07:39:45;98519.44;;;21.32;46.37
46710;BME280;32442;51.514;-0.178;2022-11-23T07:42:23;98512.75;;;21.17;44.48
46710;BME280;32442;51.514;-0.178;2022-11-23T07:45:05;98502.25;;;21.14;45.83
46710;BME280;32442;51.514;-0.178;2022-11-23T07:47:31;98503.16;;;21.18;46.01
46710;BME280;32442;51.514;-0.178;2022-11-23T07:49:58;98501.59;;;21.20;45.99
46710;BME280;32442;51.514;-0.178;2022-11-23T07:52:25;98493.59;;;21.22;45.99
46710;BME280;32442;51.514;-0.178;2022-11-23T07:54:51;98496.03;;;21.24;46.01
46710;BME280;32442;51.514;-0.178;2022-11-23T07:57:18;98478.44;;;21.27;46.10
46710;BME280;32442;51.514;-0.178;2022-11-23T07:59:45;98456.41;;;21.29;45.92
46710;BME280;32442;51.514;-0.178;2022-11-23T08:02:13;98453.22;;;21.30;45.86
46710;BME280;32442;51.514;-0.178;2022-11-23T08:04:40;98448.06;;;21.33;46.01
46710;BME280;32442;51.514;-0.178;2022-11-23T08:07:07;98445.69;;;21.35;45.93
46710;BME280;32442;51.514;-0.178;2022-11-23T08:09:33;98449.75;;;21.37;45.65
46710;BME280;32442;51.514;-0.178;2022-11-23T08:12:00;98439.72;;;21.40;46.13
46710;BME280;32442;51.514;-0.178;2022-11-23T08:14:27;98435.75;;;21.41;45.83
46710;BME280;32442;51.514;-0.178;2022-11-23T08:16:53;98434.56;;;21.42;46.10
46710;BME280;32442;51.514;-0.178;2022-11-23T08:19:20;98431.31;;;21.40;45.80
46710;BME280;32442;51.514;-0.178;2022-11-23T08:21:47;98428.50;;;21.40;46.34
46710;BME280;32442;51.514;-0.178;2022-11-23T08:24:14;98428.13;;;21.41;46.26
46710;BME280;32442;51.514;-0.178;2022-11-23T08:26:41;98417.66;;;21.38;46.33
46710;BME280;32442;51.514;-0.178;2022-11-23T08:29:07;98407.22;;;21.39;46.71
46710;BME280;32442;51.514;-0.178;2022-11-23T08:31:34;98399.19;;;21.37;46.65
46710;BME280;32442;51.514;-0.178;2022-11-23T08:34:01;98404.34;;;21.35;46.73
46710;BME280;32442;51.514;-0.178;2022-11-23T08:36:29;98394.69;;;21.33;46.69
46710;BME280;32442;51.514;-0.178;2022-11-23T08:38:55;98395.88;;;21.32;46.87
46710;BME280;32442;51.514;-0.178;2022-11-23T08:41:22;98383.81;;;21.31;46.60
46710;BME280;32442;51.514;-0.178;2022-11-23T08:43:49;98379.41;;;21.30;46.52
46710;BME280;32442;51.514;-0.178;2022-11-23T08:46:16;98372.16;;;21.29;46.33
46710;BME280;32442;51.514;-0.178;2022-11-23T08:48:42;98366.53;;;21.29;46.67
46710;BME280;32442;51.514;-0.178;2022-11-23T08:51:09;98360.06;;;21.25;46.58
46710;BME280;32442;51.514;-0.178;2022-11-23T08:53:36;98351.56;;;21.21;46.72
46710;BME280;32442;51.514;-0.178;2022-11-23T08:56:03;98348.75;;;21.21;46.67
46710;BME280;32442;51.514;-0.178;2022-11-23T08:58:31;98350.78;;;21.21;46.60
46710;BME280;32442;51.514;-0.178;2022-11-23T09:00:58;98355.19;;;21.22;46.42
46710;BME280;32442;51.514;-0.178;2022-11-23T09:03:25;98348.38;;;21.23;46.48
46710;BME280;32442;51.514;-0.178;2022-11-23T09:05:51;98344.41;;;21.24;46.43
46710;BME280;32442;51.514;-0.178;2022-11-23T09:08:19;98338.78;;;21.24;46.59
46710;BME280;32442;51.514;-0.178;2022-11-23T09:10:46;98337.59;;;21.25;46.60
46710;BME280;32442;51.514;-0.178;2022-11-23T09:13:13;98343.63;;;21.27;47.04
46710;BME280;32442;51.514;-0.178;2022-11-23T09:15:39;98324.41;;;21.29;46.63
46710;BME280;32442;51.514;-0.178;2022-11-23T09:18:06;98350.13;;;21.31;46.91
46710;BME280;32442;51.514;-0.178;2022-11-23T09:20:33;98393.09;;;21.35;47.04
46710;BME280;32442;51.514;-0.178;2022-11-23T09:23:00;98398.81;;;21.39;47.08
46710;BME280;32442;51.514;-0.178;2022-11-23T09:25:26;98388.00;;;21.41;46.93
46710;BME280;32442;51.514;-0.178;2022-11-23T09:27:56;98412.91;;;21.42;46.79
46710;BME280;32442;51.514;-0.178;2022-11-23T09:30:24;98426.19;;;21.45;46.47
46710;BME280;32442;51.514;-0.178;2022-11-23T09:32:51;98439.88;;;21.47;46.38
46710;BME280;32442;51.514;-0.178;2022-11-23T09:35:18;98443.50;;;21.47;46.71
46710;BME280;32442;51.514;-0.178;2022-11-23T09:37:44;98450.28;;;21.46;46.76
46710;BME280;32442;51.514;-0.178;2022-11-23T09:40:13;98456.72;;;21.47;46.26
46710;BME280;32442;51.514;-0.178;2022-11-23T09:42:56;98462.75;;;21.49;46.35
46710;BME280;32442;51.514;-0.178;2022-11-23T09:45:31;98474.81;;;21.49;46.46
46710;BME280;32442;51.514;-0.178;2022-11-23T09:50:46;98506.13;;;21.48;46.34
46710;BME280;32442;51.514;-0.178;2022-11-23T09:53:19;98501.31;;;21.48;45.92
46710;BME280;32442;51.514;-0.178;2022-11-23T09:55:47;98505.31;;;21.47;45.91
46710;BME280;32442;51.514;-0.178;2022-11-23T09:58:16;98500.88;;;21.46;46.21
46710;BME280;32442;51.514;-0.178;2022-11-23T10:00:45;98499.63;;;21.44;45.92
46710;BME280;32442;51.514;-0.178;2022-11-23T10:03:13;98509.22;;;21.43;46.00
46710;BME280;32442;51.514;-0.178;2022-11-23T10:05:42;98522.47;;;21.42;45.84
46710;BME280;32442;51.514;-0.178;2022-11-23T10:10:43;98536.44;;;21.39;45.76
46710;BME280;32442;51.514;-0.178;2022-11-23T10:13:17;98550.03;;;21.37;45.53
46710;BME280;32442;51.514;-0.178;2022-11-23T10:16:01;98549.63;;;21.35;46.02
46710;BME280;32442;51.514;-0.178;2022-11-23T10:21:26;98553.16;;;21.32;45.39
46710;BME280;32442;51.514;-0.178;2022-11-23T10:26:45;98558.72;;;21.28;45.43
46710;BME280;32442;51.514;-0.178;2022-11-23T10:31:52;98577.03;;;21.22;45.17
46710;BME280;32442;51.514;-0.178;2022-11-23T10:36:49;98587.03;;;21.19;45.48
46710;BME280;32442;51.514;-0.178;2022-11-23T10:39:19;98599.91;;;21.20;45.12
46710;BME280;32442;51.514;-0.178;2022-11-23T10:41:46;98606.22;;;21.17;45.06
46710;BME280;32442;51.514;-0.178;2022-11-23T10:44:29;98612.22;;;21.16;45.28
46710;BME280;32442;51.514;-0.178;2022-11-23T10:46:57;98625.88;;;21.17;45.30
46710;BME280;32442;51.514;-0.178;2022-11-23T10:49:29;98629.09;;;21.16;45.39
46710;BME280;32442;51.514;-0.178;2022-11-23T10:51:59;98641.84;;;21.13;45.09
46710;BME280;32442;51.514;-0.178;2022-11-23T10:54:27;98642.66;;;21.14;44.79
46710;BME280;32442;51.514;-0.178;2022-11-23T10:56:55;98646.19;;;21.11;45.23
46710;BME280;32442;51.514;-0.178;2022-11-23T10:59:30;98667.47;;;21.12;44.86
46710;BME280;32442;51.514;-0.178;2022-11-23T11:02:15;98670.56;;;21.07;44.83
46710;BME280;32442;51.514;-0.178;2022-11-23T11:04:42;98675.81;;;21.08;44.54
46710;BME280;32442;51.514;-0.178;2022-11-23T11:07:10;98685.78;;;21.06;44.52
46710;BME280;32442;51.514;-0.178;2022-11-23T11:09:42;98687.41;;;21.07;44.53
46710;BME280;32442;51.514;-0.178;2022-11-23T11:12:16;98700.56;;;21.03;44.92
46710;BME280;32442;51.514;-0.178;2022-11-23T11:17:36;98711.78;;;21.03;44.71
46710;BME280;32442;51.514;-0.178;2022-11-23T11:20:28;98703.72;;;21.01;44.35
46710;BME280;32442;51.514;-0.178;2022-11-23T11:22:55;98720.84;;;20.96;44.40
46710;BME280;32442;51.514;-0.178;2022-11-23T11:25:26;98717.91;;;20.89;44.58
46710;BME280;32442;51.514;-0.178;2022-11-23T11:27:55;98713.81;;;20.86;44.74
46710;BME280;32442;51.514;-0.178;2022-11-23T11:30:22;98719.00;;;20.84;44.67
46710;BME280;32442;51.514;-0.178;2022-11-23T11:35:35;98731.00;;;20.85;44.33
46710;BME280;32442;51.514;-0.178;2022-11-23T11:40:46;98740.16;;;20.82;44.62
46710;BME280;32442;51.514;-0.178;2022-11-23T11:45:52;98748.03;;;20.76;44.49
46710;BME280;32442;51.514;-0.178;2022-11-23T11:49:02;98754.84;;;20.75;44.59
46710;BME280;32442;51.514;-0.178;2022-11-23T11:56:37;98766.69;;;20.69;44.50
46710;BME280;32442;51.514;-0.178;2022-11-23T12:01:35;98761.75;;;20.62;44.75
46710;BME280;32442;51.514;-0.178;2022-11-23T12:04:05;98760.91;;;20.62;44.68
46710;BME280;32442;51.514;-0.178;2022-11-23T12:06:34;98772.97;;;20.62;45.02
46710;BME280;32442;51.514;-0.178;2022-11-23T12:09:12;98784.88;;;20.59;44.63
46710;BME280;32442;51.514;-0.178;2022-11-23T12:11:40;98786.88;;;20.59;44.75
46710;BME280;32442;51.514;-0.178;2022-11-23T12:14:13;98774.06;;;20.58;44.48
46710;BME280;32442;51.514;-0.178;2022-11-23T12:31:38;98795.66;;;20.41;44.56
46710;BME280;32442;51.514;-0.178;2022-11-23T12:34:15;98812.81;;;20.40;44.59
46710;BME280;32442;51.514;-0.178;2022-11-23T12:44:40;98834.25;;;20.32;44.74
46710;BME280;32442;51.514;-0.178;2022-11-23T12:49:54;98839.44;;;20.30;44.80
46710;BME280;32442;51.514;-0.178;2022-11-23T12:52:34;98836.47;;;20.27;44.63
46710;BME280;32442;51.514;-0.178;2022-11-23T12:56:09;98841.66;;;20.25;44.47
46710;BME280;32442;51.514;-0.178;2022-11-23T12:58:19;98852.84;;;20.25;44.61
46710;BME280;32442;51.514;-0.178;2022-11-23T13:00:49;98854.03;;;20.24;44.82
46710;BME280;32442;51.514;-0.178;2022-11-23T13:03:24;98841.91;;;20.20;44.48
46710;BME280;32442;51.514;-0.178;2022-11-23T13:11:30;98870.66;;;20.17;44.63
46710;BME280;32442;51.514;-0.178;2022-11-23T13:17:02;98867.72;;;20.13;44.16
46710;BME280;32442;51.514;-0.178;2022-11-23T13:22:18;98870.00;;;20.08;44.09
46710;BME280;32442;51.514;-0.178;2022-11-23T13:24:59;98871.59;;;20.09;44.36
46710;BME280;32442;51.514;-0.178;2022-11-23T13:29:57;98880.25;;;20.04;44.53
46710;BME280;32442;51.514;-0.178;2022-11-23T13:33:00;98878.28;;;20.04;44.19
46710;BME280;32442;51.514;-0.178;2022-11-23T13:42:48;98914.84;;;19.95;44.54
46710;BME280;32442;51.514;-0.178;2022-11-23T13:45:21;98909.25;;;19.95;44.26
46710;BME280;32442;51.514;-0.178;2022-11-23T13:48:23;98923.16;;;19.92;44.53
46710;BME280;32442;51.514;-0.178;2022-11-23T13:51:02;98933.91;;;19.90;44.33
46710;BME280;32442;51.514;-0.178;2022-11-23T13:53:33;98923.88;;;19.89;44.24
46710;BME280;32442;51.514;-0.178;2022-11-23T13:58:49;98932.06;;;19.82;44.15
46710;BME280;32442;51.514;-0.178;2022-11-23T14:04:24;98943.97;;;19.79;44.51
46710;BME280;32442;51.514;-0.178;2022-11-23T14:06:49;98953.09;;;19.76;44.39
46710;BME280;32442;51.514;-0.178;2022-11-23T14:11:51;98942.56;;;19.73;43.99
46710;BME280;32442;51.514;-0.178;2022-11-23T14:14:21;98935.69;;;19.70;44.20
46710;BME280;32442;51.514;-0.178;2022-11-23T14:24:42;98945.84;;;19.63;44.06
46710;BME280;32442;51.514;-0.178;2022-11-23T14:27:36;98940.63;;;19.61;44.46
46710;BME280;32442;51.514;-0.178;2022-11-23T14:30:22;98932.53;;;19.60;44.25
46710;BME280;32442;51.514;-0.178;2022-11-23T14:33:15;98932.44;;;19.56;44.14
46710;BME280;32442;51.514;-0.178;2022-11-23T14:35:47;98936.41;;;19.55;44.13
46710;BME280;32442;51.514;-0.178;2022-11-23T14:40:52;98944.22;;;19.49;44.45
46710;BME280;32442;51.514;-0.178;2022-11-23T14:43:20;98957.41;;;19.49;44.58
46710;BME280;32442;51.514;-0.178;2022-11-23T14:45:46;98959.75;;;19.47;44.21